sensor_id;sensor_type;location;lat;lon;timestamp;P1;durP1;ratioP1;P2;durP2;ratioP2
45762;SDS011;37512;52.408;13.356;2023-12-14T00:01:04;25.30;;;12.85;;
45762;SDS011;37512;52.408;13.356;2023-12-14T00:05:11;23.60;;;11.02;;
45762;SDS011;37512;52.408;13.356;2023-12-14T00:09:13;22.85;;;11.68;;
45762;SDS011;37512;52.408;13.356;2023-12-14T00:13:14;26.58;;;12.57;;
45762;SDS011;37512;52.408;13.356;2023-12-14T00:17:16;23.67;;;12.48;;
45762;SDS011;37512;52.408;13.356;2023-12-14T00:21:18;26.02;;;12.48;;
45762;SDS011;37512;52.408;13.356;2023-12-14T00:25:19;24.10;;;12.45;;
45762;SDS011;37512;52.408;13.356;2023-12-14T00:29:21;32.20;;;13.43;;
45762;SDS011;37512;52.408;13.356;2023-12-14T00:33:22;23.70;;;12.50;;
45762;SDS011;37512;52.408;13.356;2023-12-14T00:37:24;28.70;;;13.63;;
45762;SDS011;37512;52.408;13.356;2023-12-14T00:41:26;30.38;;;14.57;;
45762;SDS011;37512;52.408;13.356;2023-12-14T00:45:28;30.77;;;16.13;;
45762;SDS011;37512;52.408;13.356;2023-12-14T00:49:29;31.08;;;13.13;;
45762;SDS011;37512;52.408;13.356;2023-12-14T00:53:31;35.55;;;14.30;;
45762;SDS011;37512;52.408;13.356;2023-12-14T00:57:33;33.85;;;14.25;;
45762;SDS011;37512;52.408;13.356;2023-12-14T01:01:35;28.88;;;15.98;;
45762;SDS011;37512;52.408;13.356;2023-12-14T01:05:36;33.85;;;16.00;;
45762;SDS011;37512;52.408;13.356;2023-12-14T01:09:38;38.33;;;17.50;;
45762;SDS011;37512;52.408;13.356;2023-12-14T01:13:39;35.22;;;14.90;;
45762;SDS011;37512;52.408;13.356;2023-12-14T01:17:41;32.35;;;15.50;;
45762;SDS011;37512;52.408;13.356;2023-12-14T01:21:43;36.40;;;16.35;;
45762;SDS011;37512;52.408;13.356;2023-12-14T01:25:44;34.55;;;15.98;;
45762;SDS011;37512;52.408;13.356;2023-12-14T01:29:46;32.15;;;15.80;;
45762;SDS011;37512;52.408;13.356;2023-12-14T01:33:48;32.20;;;14.95;;
45762;SDS011;37512;52.408;13.356;2023-12-14T01:37:50;29.98;;;14.60;;
45762;SDS011;37512;52.408;13.356;2023-12-14T01:41:51;30.25;;;15.70;;
45762;SDS011;37512;52.408;13.356;2023-12-14T01:45:53;34.22;;;15.23;;
45762;SDS011;37512;52.408;13.356;2023-12-14T01:49:54;30.05;;;13.90;;
45762;SDS011;37512;52.408;13.356;2023-12-14T01:53:56;30.42;;;13.68;;
45762;SDS011;37512;52.408;13.356;2023-12-14T01:57:57;30.42;;;13.48;;
45762;SDS011;37512;52.408;13.356;2023-12-14T02:01:59;28.42;;;14.82;;
45762;SDS011;37512;52.408;13.356;2023-12-14T02:06:00;32.00;;;15.35;;
45762;SDS011;37512;52.408;13.356;2023-12-14T02:10:02;27.50;;;12.93;;
45762;SDS011;37512;52.408;13.356;2023-12-14T02:14:13;27.58;;;12.88;;
45762;SDS011;37512;52.408;13.356;2023-12-14T02:18:15;27.27;;;12.77;;
45762;SDS011;37512;52.408;13.356;2023-12-14T02:22:18;27.55;;;12.98;;
45762;SDS011;37512;52.408;13.356;2023-12-14T02:26:20;25.80;;;12.90;;
45762;SDS011;37512;52.408;13.356;2023-12-14T02:30:21;26.55;;;11.50;;
45762;SDS011;37512;52.408;13.356;2023-12-14T02:34:23;21.55;;;11.23;;
45762;SDS011;37512;52.408;13.356;2023-12-14T02:38:26;23.50;;;11.93;;
45762;SDS011;37512;52.408;13.356;2023-12-14T02:42:27;24.95;;;11.60;;
45762;SDS011;37512;52.408;13.356;2023-12-14T02:46:29;26.70;;;11.63;;
45762;SDS011;37512;52.408;13.356;2023-12-14T02:50:30;22.85;;;11.50;;
45762;SDS011;37512;52.408;13.356;2023-12-14T02:54:32;19.25;;;11.60;;
45762;SDS011;37512;52.408;13.356;2023-12-14T02:58:33;24.48;;;11.65;;
45762;SDS011;37512;52.408;13.356;2023-12-14T03:02:35;19.77;;;10.82;;
45762;SDS011;37512;52.408;13.356;2023-12-14T03:06:37;22.90;;;10.80;;
45762;SDS011;37512;52.408;13.356;2023-12-14T03:10:39;22.00;;;9.27;;
45762;SDS011;37512;52.408;13.356;2023-12-14T03:14:40;15.60;;;8.70;;
45762;SDS011;37512;52.408;13.356;2023-12-14T03:18:42;18.27;;;9.10;;
45762;SDS011;37512;52.408;13.356;2023-12-14T03:22:44;17.63;;;10.30;;
45762;SDS011;37512;52.408;13.356;2023-12-14T03:26:45;16.42;;;9.32;;
45762;SDS011;37512;52.408;13.356;2023-12-14T03:30:47;27.38;;;12.13;;
45762;SDS011;37512;52.408;13.356;2023-12-14T03:34:49;20.05;;;10.80;;
45762;SDS011;37512;52.408;13.356;2023-12-14T03:38:51;21.55;;;12.18;;
45762;SDS011;37512;52.408;13.356;2023-12-14T03:42:52;23.40;;;12.23;;
45762;SDS011;37512;52.408;13.356;2023-12-14T03:46:54;20.27;;;11.30;;
45762;SDS011;37512;52.408;13.356;2023-12-14T03:50:57;26.67;;;13.35;;
45762;SDS011;37512;52.408;13.356;2023-12-14T03:54:58;26.33;;;12.25;;
45762;SDS011;37512;52.408;13.356;2023-12-14T03:59:03;25.00;;;12.65;;
45762;SDS011;37512;52.408;13.356;2023-12-14T04:03:05;24.85;;;11.80;;
45762;SDS011;37512;52.408;13.356;2023-12-14T04:07:06;25.23;;;11.45;;
45762;SDS011;37512;52.408;13.356;2023-12-14T04:11:08;24.15;;;12.57;;
45762;SDS011;37512;52.408;13.356;2023-12-14T04:15:10;26.15;;;12.35;;
45762;SDS011;37512;52.408;13.356;2023-12-14T04:19:11;27.85;;;12.52;;
45762;SDS011;37512;52.408;13.356;2023-12-14T04:23:13;20.40;;;10.70;;
45762;SDS011;37512;52.408;13.356;2023-12-14T04:27:14;27.17;;;12.68;;
45762;SDS011;37512;52.408;13.356;2023-12-14T04:31:16;26.27;;;11.98;;
45762;SDS011;37512;52.408;13.356;2023-12-14T04:35:18;26.83;;;12.52;;
45762;SDS011;37512;52.408;13.356;2023-12-14T04:39:20;24.35;;;12.45;;
45762;SDS011;37512;52.408;13.356;2023-12-14T04:43:21;25.45;;;11.75;;
45762;SDS011;37512;52.408;13.356;2023-12-14T04:47:23;23.42;;;11.40;;
45762;SDS011;37512;52.408;13.356;2023-12-14T04:51:25;27.10;;;11.60;;
45762;SDS011;37512;52.408;13.356;2023-12-14T04:55:27;22.15;;;10.63;;
45762;SDS011;37512;52.408;13.356;2023-12-14T04:59:29;20.88;;;10.50;;
45762;SDS011;37512;52.408;13.356;2023-12-14T05:03:31;25.35;;;10.88;;
45762;SDS011;37512;52.408;13.356;2023-12-14T05:07:32;20.00;;;10.27;;
45762;SDS011;37512;52.408;13.356;2023-12-14T05:11:34;24.00;;;10.25;;
45762;SDS011;37512;52.408;13.356;2023-12-14T05:15:35;22.13;;;9.95;;
45762;SDS011;37512;52.408;13.356;2023-12-14T05:19:37;29.10;;;11.05;;
45762;SDS011;37512;52.408;13.356;2023-12-14T05:23:39;18.88;;;10.23;;
45762;SDS011;37512;52.408;13.356;2023-12-14T05:27:41;23.83;;;10.88;;
45762;SDS011;37512;52.408;13.356;2023-12-14T05:31:42;22.88;;;10.75;;
45762;SDS011;37512;52.408;13.356;2023-12-14T05:35:44;18.08;;;10.30;;
45762;SDS011;37512;52.408;13.356;2023-12-14T05:39:46;18.83;;;10.07;;
45762;SDS011;37512;52.408;13.356;2023-12-14T05:43:47;24.00;;;10.52;;
45762;SDS011;37512;52.408;13.356;2023-12-14T05:47:49;23.52;;;11.70;;
45762;SDS011;37512;52.408;13.356;2023-12-14T05:51:50;23.27;;;9.75;;
45762;SDS011;37512;52.408;13.356;2023-12-14T05:55:52;23.83;;;11.05;;
45762;SDS011;37512;52.408;13.356;2023-12-14T05:59:54;21.05;;;10.55;;
45762;SDS011;37512;52.408;13.356;2023-12-14T06:03:55;22.45;;;9.95;;
45762;SDS011;37512;52.408;13.356;2023-12-14T06:07:57;24.38;;;10.65;;
45762;SDS011;37512;52.408;13.356;2023-12-14T06:11:59;20.58;;;10.77;;
45762;SDS011;37512;52.408;13.356;2023-12-14T06:16:04;20.48;;;10.38;;
45762;SDS011;37512;52.408;13.356;2023-12-14T06:20:06;18.45;;;9.88;;
45762;SDS011;37512;52.408;13.356;2023-12-14T06:24:11;20.65;;;9.98;;
45762;SDS011;37512;52.408;13.356;2023-12-14T06:28:13;23.40;;;11.02;;
45762;SDS011;37512;52.408;13.356;2023-12-14T06:32:14;20.10;;;9.93;;
45762;SDS011;37512;52.408;13.356;2023-12-14T06:36:19;18.40;;;10.32;;
45762;SDS011;37512;52.408;13.356;2023-12-14T06:40:22;18.05;;;9.75;;
45762;SDS011;37512;52.408;13.356;2023-12-14T06:44:24;20.30;;;10.48;;
45762;SDS011;37512;52.408;13.356;2023-12-14T06:48:27;17.38;;;9.90;;
45762;SDS011;37512;52.408;13.356;2023-12-14T06:52:29;17.13;;;10.07;;
45762;SDS011;37512;52.408;13.356;2023-12-14T06:56:30;18.30;;;9.52;;
45762;SDS011;37512;52.408;13.356;2023-12-14T07:00:32;14.38;;;8.75;;
45762;SDS011;37512;52.408;13.356;2023-12-14T07:04:33;14.43;;;8.75;;
45762;SDS011;37512;52.408;13.356;2023-12-14T07:08:35;14.75;;;9.38;;
45762;SDS011;37512;52.408;13.356;2023-12-14T07:12:36;14.15;;;8.50;;
45762;SDS011;37512;52.408;13.356;2023-12-14T07:16:38;14.15;;;9.02;;
45762;SDS011;37512;52.408;13.356;2023-12-14T07:20:40;14.27;;;9.18;;
45762;SDS011;37512;52.408;13.356;2023-12-14T07:24:41;15.35;;;8.90;;
45762;SDS011;37512;52.408;13.356;2023-12-14T07:28:53;19.23;;;9.35;;
45762;SDS011;37512;52.408;13.356;2023-12-14T07:32:55;16.67;;;8.85;;
45762;SDS011;37512;52.408;13.356;2023-12-14T07:36:56;13.85;;;8.48;;
45762;SDS011;37512;52.408;13.356;2023-12-14T07:40:58;14.77;;;9.07;;
45762;SDS011;37512;52.408;13.356;2023-12-14T07:45:00;17.67;;;9.98;;
45762;SDS011;37512;52.408;13.356;2023-12-14T07:49:01;12.80;;;8.00;;
45762;SDS011;37512;52.408;13.356;2023-12-14T07:53:03;17.08;;;9.73;;
45762;SDS011;37512;52.408;13.356;2023-12-14T07:57:04;15.88;;;10.02;;
45762;SDS011;37512;52.408;13.356;2023-12-14T08:01:06;18.45;;;11.38;;
45762;SDS011;37512;52.408;13.356;2023-12-14T08:05:08;14.85;;;9.75;;
45762;SDS011;37512;52.408;13.356;2023-12-14T08:09:13;18.63;;;10.90;;
45762;SDS011;37512;52.408;13.356;2023-12-14T08:13:15;18.90;;;11.55;;
45762;SDS011;37512;52.408;13.356;2023-12-14T08:17:17;17.45;;;10.65;;
45762;SDS011;37512;52.408;13.356;2023-12-14T08:21:19;21.50;;;12.00;;
45762;SDS011;37512;52.408;13.356;2023-12-14T08:25:20;22.00;;;11.73;;
45762;SDS011;37512;52.408;13.356;2023-12-14T08:29:24;16.58;;;11.07;;
45762;SDS011;37512;52.408;13.356;2023-12-14T08:33:26;22.48;;;12.60;;
45762;SDS011;37512;52.408;13.356;2023-12-14T08:37:28;18.27;;;11.05;;
45762;SDS011;37512;52.408;13.356;2023-12-14T08:41:30;18.02;;;11.23;;
45762;SDS011;37512;52.408;13.356;2023-12-14T08:45:32;19.13;;;11.00;;
45762;SDS011;37512;52.408;13.356;2023-12-14T08:49:33;16.05;;;10.35;;
45762;SDS011;37512;52.408;13.356;2023-12-14T08:53:35;20.05;;;11.98;;
45762;SDS011;37512;52.408;13.356;2023-12-14T08:57:39;21.05;;;12.20;;
45762;SDS011;37512;52.408;13.356;2023-12-14T09:01:50;24.70;;;13.10;;
45762;SDS011;37512;52.408;13.356;2023-12-14T09:05:51;20.88;;;11.90;;
45762;SDS011;37512;52.408;13.356;2023-12-14T09:09:53;20.05;;;11.73;;
45762;SDS011;37512;52.408;13.356;2023-12-14T09:13:55;25.85;;;13.95;;
45762;SDS011;37512;52.408;13.356;2023-12-14T09:17:56;19.33;;;11.55;;
45762;SDS011;37512;52.408;13.356;2023-12-14T09:21:58;24.13;;;13.35;;
45762;SDS011;37512;52.408;13.356;2023-12-14T09:26:00;24.75;;;13.57;;
45762;SDS011;37512;52.408;13.356;2023-12-14T09:30:02;22.95;;;13.38;;
45762;SDS011;37512;52.408;13.356;2023-12-14T09:34:04;25.15;;;12.82;;
45762;SDS011;37512;52.408;13.356;2023-12-14T09:38:06;23.30;;;14.02;;
45762;SDS011;37512;52.408;13.356;2023-12-14T09:42:09;24.30;;;13.63;;
45762;SDS011;37512;52.408;13.356;2023-12-14T09:46:10;19.30;;;12.40;;
45762;SDS011;37512;52.408;13.356;2023-12-14T09:50:14;21.05;;;12.93;;
45762;SDS011;37512;52.408;13.356;2023-12-14T09:54:17;23.02;;;13.63;;
45762;SDS011;37512;52.408;13.356;2023-12-14T09:58:20;23.98;;;12.85;;
45762;SDS011;37512;52.408;13.356;2023-12-14T10:02:26;40.50;;;20.92;;
45762;SDS011;37512;52.408;13.356;2023-12-14T10:06:31;25.77;;;15.30;;
45762;SDS011;37512;52.408;13.356;2023-12-14T10:10:33;25.13;;;14.38;;
45762;SDS011;37512;52.408;13.356;2023-12-14T10:14:36;21.70;;;12.18;;
45762;SDS011;37512;52.408;13.356;2023-12-14T10:18:41;20.10;;;12.77;;
45762;SDS011;37512;52.408;13.356;2023-12-14T10:22:44;17.10;;;10.70;;
45762;SDS011;37512;52.408;13.356;2023-12-14T10:26:45;20.25;;;12.13;;
45762;SDS011;37512;52.408;13.356;2023-12-14T10:30:48;21.42;;;12.00;;
45762;SDS011;37512;52.408;13.356;2023-12-14T10:34:50;20.92;;;12.27;;
45762;SDS011;37512;52.408;13.356;2023-12-14T10:38:52;24.52;;;14.07;;
45762;SDS011;37512;52.408;13.356;2023-12-14T10:43:00;25.55;;;13.38;;
45762;SDS011;37512;52.408;13.356;2023-12-14T10:47:06;16.40;;;10.60;;
45762;SDS011;37512;52.408;13.356;2023-12-14T10:51:09;15.57;;;9.45;;
45762;SDS011;37512;52.408;13.356;2023-12-14T10:55:27;18.40;;;10.38;;
45762;SDS011;37512;52.408;13.356;2023-12-14T10:59:32;14.43;;;9.48;;
45762;SDS011;37512;52.408;13.356;2023-12-14T11:03:34;13.70;;;8.77;;
45762;SDS011;37512;52.408;13.356;2023-12-14T11:12:05;15.73;;;9.88;;
45762;SDS011;37512;52.408;13.356;2023-12-14T11:16:10;15.70;;;10.00;;
45762;SDS011;37512;52.408;13.356;2023-12-14T11:20:24;17.55;;;9.63;;
45762;SDS011;37512;52.408;13.356;2023-12-14T11:24:26;16.67;;;10.52;;
45762;SDS011;37512;52.408;13.356;2023-12-14T11:28:36;20.42;;;11.02;;
45762;SDS011;37512;52.408;13.356;2023-12-14T11:32:40;18.95;;;11.75;;
45762;SDS011;37512;52.408;13.356;2023-12-14T11:36:41;17.80;;;10.38;;
45762;SDS011;37512;52.408;13.356;2023-12-14T11:40:45;15.57;;;10.35;;
45762;SDS011;37512;52.408;13.356;2023-12-14T11:44:55;16.52;;;10.57;;
45762;SDS011;37512;52.408;13.356;2023-12-14T11:48:57;16.13;;;9.65;;
45762;SDS011;37512;52.408;13.356;2023-12-14T11:53:00;16.58;;;10.27;;
45762;SDS011;37512;52.408;13.356;2023-12-14T11:57:04;16.38;;;10.65;;
45762;SDS011;37512;52.408;13.356;2023-12-14T12:05:17;17.58;;;10.80;;
45762;SDS011;37512;52.408;13.356;2023-12-14T12:09:42;16.38;;;10.45;;
45762;SDS011;37512;52.408;13.356;2023-12-14T12:13:56;17.67;;;9.88;;
45762;SDS011;37512;52.408;13.356;2023-12-14T12:18:02;16.30;;;10.10;;
45762;SDS011;37512;52.408;13.356;2023-12-14T12:22:07;21.77;;;10.93;;
45762;SDS011;37512;52.408;13.356;2023-12-14T12:26:09;16.42;;;9.63;;
45762;SDS011;37512;52.408;13.356;2023-12-14T12:30:11;16.20;;;10.70;;
45762;SDS011;37512;52.408;13.356;2023-12-14T12:34:23;18.45;;;11.95;;
45762;SDS011;37512;52.408;13.356;2023-12-14T12:38:25;17.90;;;11.32;;
45762;SDS011;37512;52.408;13.356;2023-12-14T12:42:41;18.25;;;12.23;;
45762;SDS011;37512;52.408;13.356;2023-12-14T12:46:56;21.40;;;13.25;;
45762;SDS011;37512;52.408;13.356;2023-12-14T12:51:14;22.15;;;13.27;;
45762;SDS011;37512;52.408;13.356;2023-12-14T12:55:30;18.38;;;12.85;;
45762;SDS011;37512;52.408;13.356;2023-12-14T12:59:45;23.90;;;13.13;;
45762;SDS011;37512;52.408;13.356;2023-12-14T13:04:01;22.30;;;13.10;;
45762;SDS011;37512;52.408;13.356;2023-12-14T13:08:19;22.98;;;14.48;;
45762;SDS011;37512;52.408;13.356;2023-12-14T13:12:40;21.58;;;13.63;;
45762;SDS011;37512;52.408;13.356;2023-12-14T13:16:55;19.10;;;12.45;;
45762;SDS011;37512;52.408;13.356;2023-12-14T13:21:13;23.70;;;13.73;;
45762;SDS011;37512;52.408;13.356;2023-12-14T13:25:15;19.60;;;12.07;;
45762;SDS011;37512;52.408;13.356;2023-12-14T13:29:18;20.58;;;13.15;;
45762;SDS011;37512;52.408;13.356;2023-12-14T13:33:19;19.20;;;13.35;;
45762;SDS011;37512;52.408;13.356;2023-12-14T13:37:21;23.55;;;13.93;;
45762;SDS011;37512;52.408;13.356;2023-12-14T13:41:23;23.25;;;12.75;;
45762;SDS011;37512;52.408;13.356;2023-12-14T13:45:26;23.25;;;12.50;;
45762;SDS011;37512;52.408;13.356;2023-12-14T13:49:33;20.77;;;12.57;;
45762;SDS011;37512;52.408;13.356;2023-12-14T13:53:45;20.52;;;12.20;;
45762;SDS011;37512;52.408;13.356;2023-12-14T13:57:59;19.90;;;13.00;;
45762;SDS011;37512;52.408;13.356;2023-12-14T14:02:03;19.20;;;11.90;;
45762;SDS011;37512;52.408;13.356;2023-12-14T14:06:05;24.00;;;12.93;;
45762;SDS011;37512;52.408;13.356;2023-12-14T14:10:08;23.33;;;14.35;;
45762;SDS011;37512;52.408;13.356;2023-12-14T14:14:13;22.20;;;12.50;;
45762;SDS011;37512;52.408;13.356;2023-12-14T14:18:15;20.88;;;11.82;;
45762;SDS011;37512;52.408;13.356;2023-12-14T14:22:19;20.80;;;12.55;;
45762;SDS011;37512;52.408;13.356;2023-12-14T14:26:26;20.23;;;12.50;;
45762;SDS011;37512;52.408;13.356;2023-12-14T14:30:30;18.00;;;11.65;;
45762;SDS011;37512;52.408;13.356;2023-12-14T14:34:32;19.90;;;13.38;;
45762;SDS011;37512;52.408;13.356;2023-12-14T14:38:33;22.27;;;14.75;;
45762;SDS011;37512;52.408;13.356;2023-12-14T14:42:43;20.58;;;13.27;;
45762;SDS011;37512;52.408;13.356;2023-12-14T14:46:45;24.40;;;14.43;;
45762;SDS011;37512;52.408;13.356;2023-12-14T14:50:49;21.58;;;13.48;;
45762;SDS011;37512;52.408;13.356;2023-12-14T14:54:51;22.00;;;13.35;;
45762;SDS011;37512;52.408;13.356;2023-12-14T14:58:52;23.10;;;13.27;;
45762;SDS011;37512;52.408;13.356;2023-12-14T15:02:55;20.17;;;11.90;;
45762;SDS011;37512;52.408;13.356;2023-12-14T15:06:56;19.40;;;12.80;;
45762;SDS011;37512;52.408;13.356;2023-12-14T15:10:58;19.85;;;12.50;;
45762;SDS011;37512;52.408;13.356;2023-12-14T15:15:00;27.17;;;13.07;;
45762;SDS011;37512;52.408;13.356;2023-12-14T15:19:02;21.00;;;12.70;;
45762;SDS011;37512;52.408;13.356;2023-12-14T15:23:06;23.65;;;13.15;;
45762;SDS011;37512;52.408;13.356;2023-12-14T15:27:09;24.10;;;14.13;;
45762;SDS011;37512;52.408;13.356;2023-12-14T15:31:11;19.98;;;12.35;;
45762;SDS011;37512;52.408;13.356;2023-12-14T15:35:13;21.13;;;13.15;;
45762;SDS011;37512;52.408;13.356;2023-12-14T15:39:15;18.65;;;10.98;;
45762;SDS011;37512;52.408;13.356;2023-12-14T15:43:16;21.98;;;12.93;;
45762;SDS011;37512;52.408;13.356;2023-12-14T15:47:18;21.33;;;12.00;;
45762;SDS011;37512;52.408;13.356;2023-12-14T15:51:20;24.48;;;11.90;;
45762;SDS011;37512;52.408;13.356;2023-12-14T15:55:23;17.30;;;11.07;;
45762;SDS011;37512;52.408;13.356;2023-12-14T15:59:29;18.10;;;11.85;;
45762;SDS011;37512;52.408;13.356;2023-12-14T16:03:33;19.63;;;12.05;;
45762;SDS011;37512;52.408;13.356;2023-12-14T16:07:38;18.92;;;12.50;;
45762;SDS011;37512;52.408;13.356;2023-12-14T16:11:42;20.35;;;12.35;;
45762;SDS011;37512;52.408;13.356;2023-12-14T16:15:46;21.50;;;12.65;;
45762;SDS011;37512;52.408;13.356;2023-12-14T16:19:47;20.13;;;11.68;;
45762;SDS011;37512;52.408;13.356;2023-12-14T16:23:52;22.23;;;11.50;;
45762;SDS011;37512;52.408;13.356;2023-12-14T16:27:53;19.25;;;11.57;;
45762;SDS011;37512;52.408;13.356;2023-12-14T16:31:55;20.60;;;10.65;;
45762;SDS011;37512;52.408;13.356;2023-12-14T16:35:57;18.80;;;11.15;;
45762;SDS011;37512;52.408;13.356;2023-12-14T16:39:58;20.67;;;12.52;;
45762;SDS011;37512;52.408;13.356;2023-12-14T16:44:01;18.45;;;11.10;;
45762;SDS011;37512;52.408;13.356;2023-12-14T16:48:03;19.65;;;10.70;;
45762;SDS011;37512;52.408;13.356;2023-12-14T16:52:07;18.40;;;11.02;;
45762;SDS011;37512;52.408;13.356;2023-12-14T16:56:18;17.55;;;11.50;;
45762;SDS011;37512;52.408;13.356;2023-12-14T17:00:30;19.45;;;10.77;;
45762;SDS011;37512;52.408;13.356;2023-12-14T17:04:32;18.00;;;11.35;;
45762;SDS011;37512;52.408;13.356;2023-12-14T17:08:34;20.15;;;12.23;;
45762;SDS011;37512;52.408;13.356;2023-12-14T17:12:36;17.92;;;11.48;;
45762;SDS011;37512;52.408;13.356;2023-12-14T17:16:40;17.38;;;10.48;;
45762;SDS011;37512;52.408;13.356;2023-12-14T17:20:43;17.48;;;11.23;;
45762;SDS011;37512;52.408;13.356;2023-12-14T17:24:47;20.95;;;11.98;;
45762;SDS011;37512;52.408;13.356;2023-12-14T17:28:57;17.75;;;10.38;;
45762;SDS011;37512;52.408;13.356;2023-12-14T17:33:00;18.58;;;11.30;;
45762;SDS011;37512;52.408;13.356;2023-12-14T17:37:06;17.23;;;10.57;;
45762;SDS011;37512;52.408;13.356;2023-12-14T17:41:09;19.17;;;11.85;;
45762;SDS011;37512;52.408;13.356;2023-12-14T17:45:12;19.33;;;11.05;;
45762;SDS011;37512;52.408;13.356;2023-12-14T17:49:14;21.10;;;11.45;;
45762;SDS011;37512;52.408;13.356;2023-12-14T17:53:16;15.90;;;10.35;;
45762;SDS011;37512;52.408;13.356;2023-12-14T17:57:18;16.40;;;10.55;;
45762;SDS011;37512;52.408;13.356;2023-12-14T18:01:20;17.73;;;10.20;;
45762;SDS011;37512;52.408;13.356;2023-12-14T18:05:21;17.45;;;10.10;;
45762;SDS011;37512;52.408;13.356;2023-12-14T18:09:24;17.80;;;9.45;;
45762;SDS011;37512;52.408;13.356;2023-12-14T18:13:27;15.23;;;9.23;;
45762;SDS011;37512;52.408;13.356;2023-12-14T18:17:31;14.25;;;8.52;;
45762;SDS011;37512;52.408;13.356;2023-12-14T18:21:35;15.77;;;9.75;;
45762;SDS011;37512;52.408;13.356;2023-12-14T18:25:36;14.98;;;9.00;;
45762;SDS011;37512;52.408;13.356;2023-12-14T18:29:38;15.38;;;9.15;;
45762;SDS011;37512;52.408;13.356;2023-12-14T18:33:40;15.60;;;9.10;;
45762;SDS011;37512;52.408;13.356;2023-12-14T18:37:41;17.13;;;10.02;;
45762;SDS011;37512;52.408;13.356;2023-12-14T18:41:43;16.95;;;8.70;;
45762;SDS011;37512;52.408;13.356;2023-12-14T18:45:45;15.05;;;8.38;;
45762;SDS011;37512;52.408;13.356;2023-12-14T18:49:47;13.52;;;8.50;;
45762;SDS011;37512;52.408;13.356;2023-12-14T18:53:49;15.68;;;9.10;;
45762;SDS011;37512;52.408;13.356;2023-12-14T18:57:52;17.38;;;8.27;;
45762;SDS011;37512;52.408;13.356;2023-12-14T19:01:55;14.93;;;9.27;;
45762;SDS011;37512;52.408;13.356;2023-12-14T19:05:57;15.82;;;9.70;;
45762;SDS011;37512;52.408;13.356;2023-12-14T19:09:59;15.50;;;9.60;;
45762;SDS011;37512;52.408;13.356;2023-12-14T19:14:03;15.65;;;8.55;;
45762;SDS011;37512;52.408;13.356;2023-12-14T19:18:05;16.92;;;9.57;;
45762;SDS011;37512;52.408;13.356;2023-12-14T19:22:06;12.07;;;8.07;;
45762;SDS011;37512;52.408;13.356;2023-12-14T19:26:25;16.48;;;9.43;;
45762;SDS011;37512;52.408;13.356;2023-12-14T19:30:28;13.45;;;8.70;;
45762;SDS011;37512;52.408;13.356;2023-12-14T19:34:29;13.35;;;7.82;;
45762;SDS011;37512;52.408;13.356;2023-12-14T19:38:33;15.77;;;9.65;;
45762;SDS011;37512;52.408;13.356;2023-12-14T19:42:40;16.50;;;9.20;;
45762;SDS011;37512;52.408;13.356;2023-12-14T19:46:45;15.77;;;9.13;;
45762;SDS011;37512;52.408;13.356;2023-12-14T19:50:49;16.98;;;9.95;;
45762;SDS011;37512;52.408;13.356;2023-12-14T19:54:51;20.05;;;9.75;;
45762;SDS011;37512;52.408;13.356;2023-12-14T19:58:55;15.52;;;9.20;;
45762;SDS011;37512;52.408;13.356;2023-12-14T20:02:56;16.48;;;9.23;;
45762;SDS011;37512;52.408;13.356;2023-12-14T20:06:59;16.23;;;9.20;;
45762;SDS011;37512;52.408;13.356;2023-12-14T20:11:01;13.88;;;8.93;;
45762;SDS011;37512;52.408;13.356;2023-12-14T20:15:03;13.27;;;8.75;;
45762;SDS011;37512;52.408;13.356;2023-12-14T20:19:05;17.17;;;9.35;;
45762;SDS011;37512;52.408;13.356;2023-12-14T20:23:10;14.95;;;8.88;;
45762;SDS011;37512;52.408;13.356;2023-12-14T20:27:13;16.77;;;8.98;;
45762;SDS011;37512;52.408;13.356;2023-12-14T20:31:15;15.60;;;9.30;;
45762;SDS011;37512;52.408;13.356;2023-12-14T20:35:18;19.30;;;9.05;;
45762;SDS011;37512;52.408;13.356;2023-12-14T20:39:20;12.00;;;8.23;;
45762;SDS011;37512;52.408;13.356;2023-12-14T20:43:21;13.85;;;8.50;;
45762;SDS011;37512;52.408;13.356;2023-12-14T20:47:23;11.80;;;7.75;;
45762;SDS011;37512;52.408;13.356;2023-12-14T20:51:25;14.07;;;8.65;;
45762;SDS011;37512;52.408;13.356;2023-12-14T20:55:27;16.58;;;9.65;;
45762;SDS011;37512;52.408;13.356;2023-12-14T20:59:28;13.85;;;7.78;;
45762;SDS011;37512;52.408;13.356;2023-12-14T21:03:30;12.63;;;8.43;;
45762;SDS011;37512;52.408;13.356;2023-12-14T21:07:32;15.13;;;8.95;;
45762;SDS011;37512;52.408;13.356;2023-12-14T21:11:34;18.27;;;9.32;;
45762;SDS011;37512;52.408;13.356;2023-12-14T21:15:37;17.17;;;9.55;;
45762;SDS011;37512;52.408;13.356;2023-12-14T21:19:44;19.42;;;8.73;;
45762;SDS011;37512;52.408;13.356;2023-12-14T21:23:54;15.23;;;8.52;;
45762;SDS011;37512;52.408;13.356;2023-12-14T21:27:55;20.52;;;10.43;;
45762;SDS011;37512;52.408;13.356;2023-12-14T21:31:58;16.77;;;9.48;;
45762;SDS011;37512;52.408;13.356;2023-12-14T21:36:01;15.73;;;8.85;;
45762;SDS011;37512;52.408;13.356;2023-12-14T21:40:02;12.93;;;8.18;;
45762;SDS011;37512;52.408;13.356;2023-12-14T21:44:06;15.70;;;8.77;;
45762;SDS011;37512;52.408;13.356;2023-12-14T21:48:08;14.63;;;8.85;;
45762;SDS011;37512;52.408;13.356;2023-12-14T21:52:10;14.43;;;8.50;;
45762;SDS011;37512;52.408;13.356;2023-12-14T21:56:11;15.50;;;9.98;;
45762;SDS011;37512;52.408;13.356;2023-12-14T22:00:13;14.48;;;8.48;;
45762;SDS011;37512;52.408;13.356;2023-12-14T22:04:16;15.77;;;9.27;;
45762;SDS011;37512;52.408;13.356;2023-12-14T22:08:17;16.60;;;9.82;;
45762;SDS011;37512;52.408;13.356;2023-12-14T22:12:19;15.18;;;10.18;;
45762;SDS011;37512;52.408;13.356;2023-12-14T22:16:21;14.13;;;8.73;;
45762;SDS011;37512;52.408;13.356;2023-12-14T22:20:23;18.08;;;10.52;;
45762;SDS011;37512;52.408;13.356;2023-12-14T22:24:25;15.55;;;10.80;;
45762;SDS011;37512;52.408;13.356;2023-12-14T22:28:26;16.23;;;8.55;;
45762;SDS011;37512;52.408;13.356;2023-12-14T22:32:28;15.05;;;9.98;;
45762;SDS011;37512;52.408;13.356;2023-12-14T22:36:30;15.93;;;9.45;;
45762;SDS011;37512;52.408;13.356;2023-12-14T22:40:31;15.63;;;8.98;;
45762;SDS011;37512;52.408;13.356;2023-12-14T22:44:33;15.15;;;9.48;;
45762;SDS011;37512;52.408;13.356;2023-12-14T22:48:34;16.58;;;9.27;;
45762;SDS011;37512;52.408;13.356;2023-12-14T22:52:36;25.25;;;12.75;;
45762;SDS011;37512;52.408;13.356;2023-12-14T22:56:38;20.67;;;11.85;;
45762;SDS011;37512;52.408;13.356;2023-12-14T23:00:40;25.73;;;14.05;;
45762;SDS011;37512;52.408;13.356;2023-12-14T23:04:42;21.13;;;12.10;;
45762;SDS011;37512;52.408;13.356;2023-12-14T23:08:43;17.60;;;10.57;;
45762;SDS011;37512;52.408;13.356;2023-12-14T23:12:45;19.17;;;11.02;;
45762;SDS011;37512;52.408;13.356;2023-12-14T23:16:46;17.25;;;10.48;;
45762;SDS011;37512;52.408;13.356;2023-12-14T23:20:48;17.65;;;9.77;;
45762;SDS011;37512;52.408;13.356;2023-12-14T23:24:50;17.55;;;10.23;;
45762;SDS011;37512;52.408;13.356;2023-12-14T23:28:52;19.27;;;10.88;;
45762;SDS011;37512;52.408;13.356;2023-12-14T23:32:53;19.98;;;11.18;;
45762;SDS011;37512;52.408;13.356;2023-12-14T23:36:55;18.10;;;10.45;;